createdAt,value
2022-09-28T00:05:15.454Z,8.50
2022-09-28T00:15:19.178Z,8.40
2022-09-28T00:25:21.156Z,8.30
2022-09-28T00:35:24.634Z,8.20
2022-09-28T00:45:27.164Z,8.20
2022-09-28T00:55:36.666Z,8.10
2022-09-28T01:05:39.549Z,8.00
2022-09-28T01:15:53.600Z,8.00
2022-09-28T01:26:08.163Z,7.90
2022-09-28T01:36:14.386Z,7.90
2022-09-28T01:46:21.448Z,7.80
2022-09-28T01:56:28.664Z,7.70
2022-09-28T02:06:36.406Z,7.70
2022-09-28T02:16:41.305Z,7.60
2022-09-28T02:26:48.261Z,7.60
2022-09-28T02:36:50.249Z,7.60
2022-09-28T02:46:58.779Z,7.40
2022-09-28T02:57:18.655Z,7.40
2022-09-28T03:07:26.177Z,7.30
2022-09-28T03:17:28.082Z,7.20
2022-09-28T03:27:31.475Z,7.20
2022-09-28T03:37:33.462Z,7.10
2022-09-28T03:47:36.775Z,7.00
2022-09-28T03:57:38.943Z,7.10
2022-09-28T04:07:42.248Z,7.00
2022-09-28T04:17:44.260Z,7.00
2022-09-28T04:27:47.608Z,6.90
2022-09-28T04:37:49.689Z,6.90
2022-09-28T04:47:53.151Z,6.90
2022-09-28T04:57:55.102Z,6.90
2022-09-28T05:07:59.258Z,6.90
2022-09-28T05:18:01.503Z,6.80
2022-09-28T05:28:05.139Z,6.80
2022-09-28T05:38:07.047Z,6.80
2022-09-28T05:48:10.354Z,6.70
2022-09-28T05:58:12.360Z,6.70
2022-09-28T06:08:15.658Z,6.70
2022-09-28T06:18:17.573Z,6.60
2022-09-28T06:28:20.889Z,6.60
2022-09-28T06:38:22.803Z,6.80
2022-09-28T06:48:26.210Z,6.90
2022-09-28T06:58:28.218Z,7.00
2022-09-28T07:08:31.704Z,7.20
2022-09-28T07:18:33.679Z,7.40
2022-09-28T07:28:36.990Z,7.70
2022-09-28T07:38:41.352Z,7.90
2022-09-28T07:48:44.706Z,8.10
2022-09-28T07:58:47.908Z,8.50
2022-09-28T08:08:51.221Z,8.70
2022-09-28T08:18:53.383Z,9.00
2022-09-28T08:28:56.776Z,9.30
2022-09-28T08:38:58.800Z,9.60
2022-09-28T08:49:25.770Z,9.90
2022-09-28T08:59:35.132Z,10.30
2022-09-28T09:09:56.723Z,11.30
2022-09-28T09:20:11.424Z,13.10
2022-09-28T09:30:19.650Z,14.80
2022-09-28T09:40:31.328Z,14.00
2022-09-28T09:50:40.655Z,14.30
2022-09-28T10:00:45.605Z,14.40
2022-09-28T10:10:52.992Z,14.50
2022-09-28T10:20:54.909Z,15.00
2022-09-28T10:30:58.502Z,14.50
2022-09-28T10:41:02.109Z,14.70
2022-09-28T10:51:07.555Z,15.30
2022-09-28T11:01:11.486Z,14.70
2022-09-28T11:11:16.741Z,14.80
2022-09-28T11:21:23.184Z,14.30
2022-09-28T11:31:29.009Z,13.70
2022-09-28T11:41:48.103Z,13.60
2022-09-28T11:51:56.664Z,13.70
2022-09-28T12:02:03.178Z,13.90
2022-09-28T12:12:18.211Z,14.00
2022-09-28T12:22:25.237Z,14.10
2022-09-28T12:32:38.129Z,13.90
2022-09-28T12:42:52.832Z,13.90
2022-09-28T12:53:10.641Z,14.10
2022-09-28T13:03:51.141Z,14.40
2022-09-28T13:14:04.782Z,14.40
2022-09-28T13:24:30.995Z,14.70
2022-09-28T13:34:38.032Z,14.80
2022-09-28T13:44:57.405Z,14.70
2022-09-28T13:55:18.099Z,14.50
2022-09-28T14:05:47.911Z,14.50
2022-09-28T14:15:51.286Z,14.30
2022-09-28T14:26:35.667Z,14.20
2022-09-28T14:36:47.589Z,14.40
2022-09-28T14:46:49.525Z,14.40
2022-09-28T14:57:05.355Z,14.60
2022-09-28T15:07:18.138Z,14.80
2022-09-28T15:17:24.141Z,14.80
2022-09-28T15:27:34.936Z,14.60
2022-09-28T15:37:40.677Z,14.40
2022-09-28T15:47:43.040Z,14.10
2022-09-28T15:57:46.808Z,13.80
2022-09-28T16:07:56.064Z,13.90
2022-09-28T16:18:01.983Z,14.20
2022-09-28T16:28:05.184Z,14.50
2022-09-28T16:38:12.679Z,14.30
2022-09-28T16:48:16.190Z,14.10
2022-09-28T16:58:19.526Z,13.80
2022-09-28T17:08:23.527Z,13.50
2022-09-28T17:18:26.840Z,13.20
2022-09-28T17:28:31.824Z,12.90
2022-09-28T17:38:35.148Z,12.50
2022-09-28T17:48:38.230Z,12.10
2022-09-28T17:58:41.603Z,11.70
2022-09-28T18:08:43.850Z,11.40
2022-09-28T18:18:47.240Z,11.10
2022-09-28T18:28:49.186Z,10.90
2022-09-28T18:38:52.491Z,10.70
2022-09-28T18:50:07.493Z,10.40
2022-09-28T18:59:29.121Z,10.20
2022-09-28T19:09:35.651Z,9.90
2022-09-28T19:19:43.095Z,9.70
2022-09-28T19:29:45.066Z,9.50
2022-09-28T19:39:50.651Z,9.30
2022-09-28T19:50:01.993Z,9.10
2022-09-28T20:00:06.788Z,8.90
2022-09-28T20:10:10.084Z,8.80
2022-09-28T20:20:13.373Z,8.70
2022-09-28T20:30:15.422Z,8.50
2022-09-28T20:40:18.868Z,8.40
2022-09-28T20:50:21.960Z,8.30
2022-09-28T21:00:25.362Z,8.20
2022-09-28T21:10:27.445Z,8.10
2022-09-28T21:20:30.909Z,8.00
2022-09-28T21:30:32.833Z,7.80
2022-09-28T21:40:36.214Z,7.70
2022-09-28T21:50:38.115Z,7.60
2022-09-28T22:00:41.435Z,7.50
2022-09-28T22:11:14.007Z,7.40
2022-09-28T22:21:19.329Z,7.30
2022-09-28T22:31:23.471Z,7.20
2022-09-28T22:41:26.952Z,7.10
2022-09-28T22:51:29.917Z,7.00
2022-09-28T23:01:34.503Z,6.90
2022-09-28T23:11:36.402Z,6.70
2022-09-28T23:21:40.369Z,6.70
2022-09-28T23:31:42.497Z,6.70
2022-09-28T23:41:45.835Z,6.60
2022-09-28T23:51:47.810Z,6.50
